Time;durP1;ratioP1;P1;durP2;ratioP2;P2;SDS_P1;SDS_P2;PMS_P1;PMS_P2;Temp;Humidity;BMP_temperature;BMP_pressure;BME280_temperature;BME280_humidity;BME280_pressure;Samples;Min_cycle;Max_cycle;Signal;HPM_P1;HPM_P2
2022/04/18 00:00:36;;;;;;;0.00;0.00;;;;;;;5.67;86.00;98563.50;5555026;23;20028;-81
2022/04/18 00:03:03;;;;;;;0.00;0.00;;;;;;;5.69;85.91;98558.72;4847227;29;20049;-78
2022/04/18 00:05:33;;;;;;;0.00;0.00;;;;;;;5.70;86.16;98558.47;4848167;29;20068;-77
2022/04/18 00:07:58;;;;;;;0.00;0.00;;;;;;;5.72;86.27;98553.69;4850875;29;20117;-77
2022/04/18 00:10:25;;;;;;;0.00;0.00;;;;;;;5.73;85.35;98549.19;4856106;29;20738;-77
2022/04/18 00:12:50;;;;;;;0.00;0.00;;;;;;;5.72;86.06;98550.25;4844834;29;20173;-78
2022/04/18 00:15:35;;;;;;;0.00;0.00;;;;;;;5.71;85.21;98561.91;4857091;29;20073;-79
2022/04/18 00:18:12;;;;;;;0.00;0.00;;;;;;;5.68;86.21;98554.47;4851101;29;20513;-81
2022/04/18 00:20:47;;;;;;;0.00;0.00;;;;;;;5.70;85.81;98555.00;4803574;29;20534;-81
2022/04/18 00:23:13;;;;;;;0.00;0.00;;;;;;;5.73;86.25;98560.59;4836906;29;20030;-80
2022/04/18 00:26:21;;;;;;;0.00;0.00;;;;;;;5.72;86.31;98556.34;4843822;29;20041;-81
2022/04/18 00:28:47;;;;;;;0.00;0.00;;;;;;;5.68;86.02;98555.28;4842119;29;20065;-79
2022/04/18 00:31:12;;;;;;;0.00;0.00;;;;;;;5.66;85.93;98559.22;4844771;29;20458;-79
2022/04/18 00:33:39;;;;;;;0.00;0.00;;;;;;;5.63;86.38;98554.44;4842938;29;20026;-79
2022/04/18 00:36:04;;;;;;;0.00;0.00;;;;;;;5.61;85.56;98549.38;4843312;29;20036;-79
2022/04/18 00:38:30;;;;;;;0.00;0.00;;;;;;;5.53;85.07;98550.66;4844484;29;20117;-79
2022/04/18 00:40:56;;;;;;;0.00;0.00;;;;;;;5.50;85.65;98545.06;4852623;29;20128;-77
2022/04/18 00:44:00;;;;;;;0.00;0.00;;;;;;;5.46;85.10;98547.44;4845242;29;20550;-79
2022/04/18 00:46:26;;;;;;;0.00;0.00;;;;;;;5.42;85.11;98539.19;4825363;29;20058;-79
2022/04/18 00:48:51;;;;;;;0.00;0.00;;;;;;;5.38;85.49;98531.97;4804730;29;20507;-79
2022/04/18 00:51:21;;;;;;;0.00;0.00;;;;;;;5.34;85.49;98530.91;4817712;29;20136;-78
2022/04/18 00:53:47;;;;;;;0.00;0.00;;;;;;;5.22;85.83;98533.72;4853755;29;20037;-78
2022/04/18 00:56:17;;;;;;;0.00;0.00;;;;;;;5.11;86.23;98528.34;4857842;29;20482;-77
2022/04/18 00:58:44;;;;;;;0.00;0.00;;;;;;;5.03;85.77;98528.81;4855245;29;20410;-75
2022/04/18 01:01:10;;;;;;;0.00;0.00;;;;;;;5.09;87.03;98529.63;4841782;29;20527;-76
2022/04/18 01:03:35;;;;;;;0.00;0.00;;;;;;;4.96;86.60;98520.25;4857475;29;20082;-79
2022/04/18 01:06:02;;;;;;;0.00;0.00;;;;;;;4.94;86.97;98528.47;4841555;29;20033;-79
2022/04/18 01:08:29;;;;;;;0.00;0.00;;;;;;;4.94;86.92;98525.81;4842679;29;20045;-79
2022/04/18 01:10:55;;;;;;;0.00;0.00;;;;;;;4.87;87.01;98533.19;4860919;29;20169;-78
2022/04/18 01:13:21;;;;;;;0.00;0.00;;;;;;;4.79;87.52;98520.38;4843062;29;20124;-78
2022/04/18 01:15:51;;;;;;;0.00;0.00;;;;;;;4.88;88.06;98524.19;4839471;29;20042;-79
2022/04/18 01:18:17;;;;;;;0.00;0.00;;;;;;;4.83;87.78;98534.72;4841626;29;20486;-79
2022/04/18 01:20:42;;;;;;;0.10;0.10;;;;;;;4.83;88.04;98534.72;4839396;29;20120;-79
2022/04/18 01:23:42;;;;;;;0.00;0.00;;;;;;;4.87;88.12;98532.34;4868820;24;20068;-81
2022/04/18 02:08:41;;;;;;;0.00;0.00;;;;;;;5.18;88.54;98498.19;4875669;29;20060;-80
2022/04/18 02:15:12;;;;;;;0.00;0.00;;;;;;;5.24;88.71;98499.81;4862822;29;20121;-81
2022/04/18 02:30:57;;;;;;;0.00;0.00;;;;;;;5.24;88.54;98505.91;4889548;29;20128;-80
2022/04/18 02:43:48;;;;;;;0.00;0.00;;;;;;;5.10;88.56;98502.06;4880148;29;20527;-80
2022/04/18 02:46:54;;;;;;;0.00;0.00;;;;;;;5.08;88.51;98506.84;4890503;29;20116;-82
2022/04/18 02:49:23;;;;;;;0.00;0.00;;;;;;;5.09;88.11;98506.59;4896996;29;20059;-79
2022/04/18 02:51:48;;;;;;;0.00;0.00;;;;;;;5.08;88.13;98504.19;4889750;29;20025;-79
2022/04/18 02:54:14;;;;;;;0.00;0.00;;;;;;;5.11;88.03;98503.69;4885613;29;20025;-79
2022/04/18 03:18:47;;;;;;;0.00;0.00;;;;;;;5.07;88.21;98495.44;5747372;23;20978;31
2022/04/18 03:21:16;;;;;;;0.00;0.00;;;;;;;5.10;88.32;98499.44;4887464;29;20053;-79
2022/04/18 03:23:44;;;;;;;0.00;0.00;;;;;;;5.12;87.84;98499.97;4841346;29;20041;-78
2022/04/18 03:26:16;;;;;;;0.00;0.00;;;;;;;5.03;88.45;98502.31;4861450;29;20029;-79
2022/04/18 03:28:51;;;;;;;0.00;0.00;;;;;;;5.11;88.50;98506.34;4856891;29;20029;-79
2022/04/18 03:31:27;;;;;;;0.00;0.00;;;;;;;5.13;88.57;98501.59;4860192;29;20091;-80
2022/04/18 03:34:02;;;;;;;0.00;0.00;;;;;;;5.16;88.72;98502.94;4846805;29;20060;-82
2022/04/18 03:41:58;;;;;;;0.00;0.00;;;;;;;5.16;88.85;98495.75;4861316;29;20049;-78
2022/04/18 03:44:24;;;;;;;0.00;0.00;;;;;;;5.16;88.94;98492.31;4845794;29;20558;-78
2022/04/18 03:46:49;;;;;;;0.00;0.00;;;;;;;5.15;89.03;98501.31;4845418;29;20490;-79
2022/04/18 03:49:15;;;;;;;0.00;0.00;;;;;;;5.14;89.18;98505.84;4844457;29;20045;-80
2022/04/18 03:51:40;;;;;;;0.00;0.00;;;;;;;5.16;88.63;98511.66;4877493;29;20041;-81
2022/04/18 03:54:05;;;;;;;0.00;0.00;;;;;;;5.15;88.83;98507.44;4850820;29;20041;-79
2022/04/18 03:56:32;;;;;;;1.27;0.90;;;;;;;5.17;88.87;98507.97;4844611;29;20559;-79
2022/04/18 03:58:57;;;;;;;0.00;0.00;;;;;;;5.13;88.61;98494.41;4861562;29;20498;-77
2022/04/18 04:01:23;;;;;;;0.00;0.00;;;;;;;5.14;89.08;98505.84;4860870;29;20062;-77
2022/04/18 04:03:48;;;;;;;0.00;0.00;;;;;;;5.17;88.69;98510.63;4861844;29;20041;-78
2022/04/18 04:06:13;;;;;;;0.00;0.00;;;;;;;5.24;89.03;98507.78;4845185;29;20086;-79
2022/04/18 04:08:59;;;;;;;0.00;0.00;;;;;;;5.25;88.72;98502.19;4875360;29;20509;-81
2022/04/18 04:11:25;;;;;;;0.00;0.00;;;;;;;5.34;88.17;98499.09;4857287;29;20033;-78
2022/04/18 04:13:54;;;;;;;0.00;0.00;;;;;;;5.28;88.35;98492.94;4859475;29;20029;-80
2022/04/18 04:16:19;;;;;;;0.00;0.00;;;;;;;5.22;88.68;98504.56;4871766;29;20060;-79
2022/04/18 04:18:45;;;;;;;0.17;0.17;;;;;;;5.23;89.03;98504.31;4861661;29;20087;-78
2022/04/18 04:21:10;;;;;;;0.00;0.00;;;;;;;5.27;89.18;98499.28;4860026;29;20040;-78
2022/04/18 04:23:35;;;;;;;0.10;0.10;;;;;;;5.17;88.10;98497.38;4861717;29;20048;-77
2022/04/18 04:26:01;;;;;;;0.00;0.00;;;;;;;5.18;88.70;98498.19;4861971;29;20045;-76
2022/04/18 04:28:27;;;;;;;0.00;0.00;;;;;;;5.18;89.33;98496.31;4860436;29;20045;-77
2022/04/18 04:30:52;;;;;;;0.00;0.00;;;;;;;5.23;89.44;98504.31;4861460;29;20049;-74
2022/04/18 04:33:17;;;;;;;0.00;0.00;;;;;;;5.29;89.28;98503.28;4860368;29;20522;-76
2022/04/18 04:35:43;;;;;;;0.00;0.00;;;;;;;5.29;89.58;98505.16;4860349;29;20034;-74
2022/04/18 04:38:08;;;;;;;0.00;0.00;;;;;;;5.24;89.30;98507.78;4860840;29;20065;-74
2022/04/18 04:40:34;;;;;;;0.00;0.00;;;;;;;5.25;89.36;98515.47;4861013;29;20062;-74
2022/04/18 04:42:59;;;;;;;0.00;0.00;;;;;;;5.27;89.35;98504.59;4861050;29;20104;-74
2022/04/18 04:45:24;;;;;;;0.10;0.10;;;;;;;5.22;89.47;98500.03;4859835;29;20180;-75
2022/04/18 04:47:50;;;;;;;0.00;0.00;;;;;;;5.26;89.67;98509.09;4861059;29;20170;-75
2022/04/18 04:50:15;;;;;;;0.00;0.00;;;;;;;5.30;89.71;98509.41;4860998;29;20037;-75
2022/04/18 04:52:41;;;;;;;0.00;0.00;;;;;;;5.34;89.31;98512.34;4859875;29;20044;-74
2022/04/18 04:55:08;;;;;;;0.00;0.00;;;;;;;5.36;89.38;98507.56;4861183;29;20037;-75
2022/04/18 04:57:34;;;;;;;0.00;0.00;;;;;;;5.41;88.96;98510.28;4859377;29;20418;-76
2022/04/18 05:00:00;;;;;;;0.05;0.05;;;;;;;5.42;89.58;98514.50;4860960;29;20033;-77
2022/04/18 05:02:25;;;;;;;0.00;0.00;;;;;;;5.46;89.42;98515.59;4861077;29;20045;-75
2022/04/18 05:04:51;;;;;;;0.00;0.00;;;;;;;5.54;88.78;98503.72;4860508;29;20037;-75
2022/04/18 05:07:17;;;;;;;0.00;0.00;;;;;;;5.57;88.91;98511.16;4860633;29;20116;-74
2022/04/18 05:09:42;;;;;;;0.00;0.00;;;;;;;5.58;88.67;98508.25;4860167;29;20120;-75
2022/04/18 05:12:08;;;;;;;0.00;0.00;;;;;;;5.59;89.09;98515.16;4860589;29;20036;-75
2022/04/18 05:14:34;;;;;;;0.00;0.00;;;;;;;5.59;88.56;98512.50;4860454;29;20033;-75
2022/04/18 05:17:01;;;;;;;0.00;0.00;;;;;;;5.61;88.86;98518.38;4860800;29;20041;-74
2022/04/18 05:19:27;;;;;;;0.00;0.00;;;;;;;5.58;88.41;98518.88;4860436;29;20683;-74
2022/04/18 05:21:52;;;;;;;0.00;0.00;;;;;;;5.65;87.97;98520.50;4860212;29;20070;-74
2022/04/18 05:24:18;;;;;;;0.08;0.08;;;;;;;5.63;88.35;98515.44;4860174;29;20033;-76
2022/04/18 05:26:43;;;;;;;0.00;0.00;;;;;;;5.66;88.63;98532.72;4860142;29;20471;-75
2022/04/18 05:29:09;;;;;;;0.20;0.20;;;;;;;5.63;88.50;98527.91;4860269;29;20038;-76
2022/04/18 05:31:34;;;;;;;0.00;0.00;;;;;;;5.66;88.22;98535.34;4859759;29;20037;-76
2022/04/18 05:33:59;;;;;;;0.00;0.00;;;;;;;5.68;88.19;98512.81;4860185;29;20115;-76
2022/04/18 05:36:25;;;;;;;0.00;0.00;;;;;;;5.66;88.22;98517.56;4860192;29;20108;-75
2022/04/18 05:38:50;;;;;;;0.00;0.00;;;;;;;5.68;88.49;98522.66;4859902;29;20034;-75
2022/04/18 05:41:16;;;;;;;0.00;0.00;;;;;;;5.68;88.42;98515.47;4860050;29;20038;-76
2022/04/18 05:43:41;;;;;;;0.00;0.00;;;;;;;5.70;88.82;98525.81;4858527;29;20037;-75
2022/04/18 05:46:07;;;;;;;0.00;0.00;;;;;;;5.65;88.23;98516.00;4859707;29;20041;-75
2022/04/18 05:48:32;;;;;;;0.00;0.00;;;;;;;5.67;87.63;98515.75;4859844;29;20526;-74
2022/04/18 05:50:57;;;;;;;0.00;0.00;;;;;;;5.67;88.30;98523.69;4859499;29;20073;-75
2022/04/18 05:53:27;;;;;;;0.00;0.00;;;;;;;5.69;87.70;98527.69;4859877;29;20093;-75
2022/04/18 05:55:52;;;;;;;0.00;0.00;;;;;;;5.62;87.67;98529.75;4859371;29;20029;-75
2022/04/18 05:58:18;;;;;;;0.00;0.00;;;;;;;5.64;88.54;98529.50;4859490;29;20120;-76
2022/04/18 06:00:43;;;;;;;0.00;0.00;;;;;;;5.66;87.50;98532.72;4857887;29;20030;-76
2022/04/18 06:03:08;;;;;;;0.00;0.00;;;;;;;5.63;88.11;98518.09;4859034;29;20112;-75
2022/04/18 06:05:34;;;;;;;0.00;0.00;;;;;;;5.64;88.45;98530.31;4858329;29;20482;-76
2022/04/18 06:07:59;;;;;;;0.00;0.00;;;;;;;5.63;87.32;98527.91;4859024;29;20077;-76
2022/04/18 06:10:24;;;;;;;0.00;0.00;;;;;;;5.65;88.17;98531.09;4859278;29;20041;-75
2022/04/18 06:12:50;;;;;;;0.00;0.00;;;;;;;5.63;88.56;98544.63;4858885;29;20044;-75
2022/04/18 06:15:15;;;;;;;0.00;0.00;;;;;;;5.58;88.13;98540.09;4858886;29;20113;-75
2022/04/18 06:17:41;;;;;;;0.00;0.00;;;;;;;5.46;88.90;98534.16;4858600;29;20505;-75
2022/04/18 06:20:07;;;;;;;0.00;0.00;;;;;;;5.49;88.87;98540.81;4858895;29;20116;-75
2022/04/18 06:22:32;;;;;;;0.00;0.00;;;;;;;5.54;88.85;98543.50;4858442;29;20120;-75
2022/04/18 06:24:58;;;;;;;0.00;0.00;;;;;;;5.55;88.41;98545.09;4858539;29;20079;-76
2022/04/18 06:27:23;;;;;;;0.00;0.00;;;;;;;5.55;88.01;98545.09;4858674;29;20101;-75
2022/04/18 06:29:49;;;;;;;0.00;0.00;;;;;;;5.55;87.87;98547.75;4857131;29;20073;-76
2022/04/18 06:32:15;;;;;;;0.00;0.00;;;;;;;5.54;87.87;98552.28;4857399;29;20462;-75
2022/04/18 06:34:40;;;;;;;0.00;0.00;;;;;;;5.49;87.51;98546.13;4858099;29;20109;-75
2022/04/18 06:37:05;;;;;;;0.00;0.00;;;;;;;5.48;87.53;98558.59;4859000;29;20108;-75
2022/04/18 06:39:31;;;;;;;0.00;0.00;;;;;;;5.42;87.11;98563.06;4858570;29;20508;-75
2022/04/18 06:41:57;;;;;;;0.00;0.00;;;;;;;5.51;87.62;98563.38;4858498;29;20140;-76
2022/04/18 06:44:23;;;;;;;0.00;0.00;;;;;;;5.47;88.79;98549.03;4858494;29;20025;-76
2022/04/18 06:46:49;;;;;;;0.00;0.00;;;;;;;5.57;88.93;98572.97;4858271;29;20029;-75
2022/04/18 06:49:14;;;;;;;0.00;0.00;;;;;;;5.56;87.87;98567.91;4858161;29;20108;-75
2022/04/18 06:51:39;;;;;;;0.00;0.00;;;;;;;5.53;87.73;98563.13;4858440;29;20528;-75
2022/04/18 06:54:05;;;;;;;0.00;0.00;;;;;;;5.52;86.87;98570.28;4858554;29;20041;-75
2022/04/18 06:59:14;;;;;;;0.10;0.10;;;;;;;5.52;86.15;98572.94;4858151;29;20045;-75
2022/04/18 07:01:59;;;;;;;0.00;0.00;;;;;;;5.55;87.44;98575.06;4857665;29;20030;-75
2022/04/18 07:04:25;;;;;;;0.00;0.00;;;;;;;5.47;86.76;98572.09;4858136;29;20030;-75
2022/04/18 07:06:50;;;;;;;0.00;0.00;;;;;;;5.50;88.07;98571.59;4858395;29;20475;-75
2022/04/18 07:09:16;;;;;;;1.15;1.05;;;;;;;5.66;88.75;98578.59;4858644;29;20624;-75
2022/04/18 07:11:44;;;;;;;0.00;0.00;;;;;;;5.79;88.66;98584.53;4857304;29;20040;-76
2022/04/18 07:14:12;;;;;;;0.00;0.00;;;;;;;5.77;89.12;98582.94;4858839;29;20025;-75
2022/04/18 07:16:39;;;;;;;0.00;0.00;;;;;;;5.81;88.83;98583.22;4860622;29;20052;-75
2022/04/18 07:19:04;;;;;;;0.00;0.00;;;;;;;5.83;87.58;98583.75;4862252;29;20266;-75
2022/04/18 07:21:30;;;;;;;0.05;0.05;;;;;;;5.88;87.50;98597.06;4862425;29;20033;-75
2022/04/18 07:23:56;;;;;;;0.00;0.00;;;;;;;5.89;87.30;98589.91;4862355;29;20147;-75
2022/04/18 07:26:22;;;;;;;0.00;0.00;;;;;;;6.01;87.37;98593.19;4862443;29;20112;-75
2022/04/18 07:28:47;;;;;;;0.00;0.00;;;;;;;6.10;87.29;98590.84;4862211;29;20093;-75
2022/04/18 07:31:13;;;;;;;0.00;0.00;;;;;;;6.13;87.34;98598.28;4862400;29;20033;-75
2022/04/18 07:33:39;;;;;;;0.00;0.00;;;;;;;6.17;87.51;98595.94;4862604;29;20083;-76
2022/04/18 07:36:04;;;;;;;0.00;0.00;;;;;;;6.11;86.56;98605.72;4862295;29;20510;-75
2022/04/18 07:38:49;;;;;;;0.00;0.00;;;;;;;6.14;86.17;98607.03;4861011;29;20026;-75
2022/04/18 07:41:20;;;;;;;0.13;0.13;;;;;;;6.02;86.38;98613.38;4862235;29;20060;-75
2022/04/18 07:43:46;;;;;;;0.00;0.00;;;;;;;5.94;86.41;98613.81;4861948;29;20038;-75
2022/04/18 07:46:12;;;;;;;0.00;0.00;;;;;;;6.02;87.39;98616.03;4862122;29;20064;-75
2022/04/18 07:48:38;;;;;;;0.00;0.00;;;;;;;6.03;87.49;98619.47;4862026;29;20470;-75
2022/04/18 07:53:47;;;;;;;0.00;0.00;;;;;;;5.98;87.89;98614.09;4861510;29;20064;-75
2022/04/18 07:56:13;;;;;;;0.00;0.00;;;;;;;5.93;87.46;98626.28;4862196;29;20447;-74
2022/04/18 07:58:38;;;;;;;0.00;0.00;;;;;;;5.92;87.64;98618.59;4861914;29;20516;-74
2022/04/18 08:01:04;;;;;;;0.00;0.00;;;;;;;6.01;87.84;98619.72;4861606;29;20086;-75
2022/04/18 08:03:33;;;;;;;0.00;0.00;;;;;;;6.05;87.75;98628.78;4861748;29;20025;-76
2022/04/18 08:05:59;;;;;;;0.00;0.00;;;;;;;6.05;88.51;98633.28;4861546;29;20030;-76
2022/04/18 08:08:25;;;;;;;0.00;0.00;;;;;;;6.07;89.22;98629.31;4861748;29;20490;-76
2022/04/18 08:10:50;;;;;;;0.00;0.00;;;;;;;6.17;88.16;98627.78;4861720;29;20033;-76
2022/04/18 08:13:16;;;;;;;0.45;0.45;;;;;;;6.29;88.31;98636.34;4861651;29;20026;-76
2022/04/18 08:15:41;;;;;;;0.00;0.00;;;;;;;6.30;87.43;98635.28;4848508;29;20038;-76
2022/04/18 08:18:06;;;;;;;0.00;0.00;;;;;;;6.27;87.45;98629.69;4842845;29;20033;-76
2022/04/18 08:20:32;;;;;;;0.00;0.00;;;;;;;6.37;87.13;98640.38;4856906;29;20034;-76
2022/04/18 08:22:58;;;;;;;0.00;0.00;;;;;;;6.35;86.70;98629.22;4842443;29;20071;-75
2022/04/18 08:25:23;;;;;;;0.00;0.00;;;;;;;6.34;85.86;98631.06;4857178;29;20545;-76
2022/04/18 08:27:49;;;;;;;0.00;0.00;;;;;;;6.31;85.73;98636.09;4842332;29;20033;-75
2022/04/18 08:30:14;;;;;;;0.00;0.00;;;;;;;6.30;86.94;98632.63;4842727;29;20029;-75
2022/04/18 08:32:40;;;;;;;0.00;0.00;;;;;;;6.30;86.48;98637.13;4842655;29;20409;-76
2022/04/18 08:35:07;;;;;;;0.00;0.00;;;;;;;6.35;86.81;98639.84;4856411;29;20108;-75
2022/04/18 08:37:34;;;;;;;0.00;0.00;;;;;;;6.35;85.90;98645.94;4859981;29;20046;-75
2022/04/18 08:40:01;;;;;;;0.00;0.00;;;;;;;6.29;86.00;98639.00;4860895;29;20504;-75
2022/04/18 08:42:33;;;;;;;0.00;0.00;;;;;;;6.25;86.35;98636.06;4859923;29;20398;-75
2022/04/18 08:45:03;;;;;;;0.00;0.00;;;;;;;6.28;86.15;98653.34;4860955;29;20105;-76
2022/04/18 08:52:57;;;;;;;0.00;0.00;;;;;;;6.24;86.72;98649.59;4860781;29;20081;-76
2022/04/18 08:55:23;;;;;;;0.00;0.00;;;;;;;6.21;85.85;98645.63;4860753;29;20041;-76
2022/04/18 08:57:48;;;;;;;0.00;0.00;;;;;;;6.27;87.05;98643.75;4853925;29;20094;-76
2022/04/18 09:00:14;;;;;;;0.00;0.00;;;;;;;6.31;85.90;98644.88;4856451;29;20033;-76
2022/04/18 09:02:39;;;;;;;0.00;0.00;;;;;;;6.38;85.90;98641.97;4842148;29;20494;-76
2022/04/18 09:05:12;;;;;;;0.00;0.00;;;;;;;6.30;86.65;98645.09;4842133;29;20034;-75
2022/04/18 09:07:43;;;;;;;0.00;0.00;;;;;;;6.29;86.05;98641.66;4842268;29;20033;-75
2022/04/18 09:10:09;;;;;;;0.00;0.00;;;;;;;6.24;85.47;98645.06;4841772;29;20410;-75
2022/04/18 09:12:34;;;;;;;0.00;0.00;;;;;;;6.20;86.65;98651.16;4842520;29;20038;-76
2022/04/18 09:14:59;;;;;;;0.00;0.00;;;;;;;6.27;87.47;98642.97;4842236;29;20030;-76
2022/04/18 09:17:29;;;;;;;0.00;0.00;;;;;;;6.31;87.67;98639.56;4856240;29;20431;-76
2022/04/18 09:20:09;;;;;;;0.00;0.00;;;;;;;6.26;87.39;98652.78;4840359;29;20034;-75
2022/04/18 09:22:42;;;;;;;0.00;0.00;;;;;;;6.20;86.40;98649.31;4846111;29;20561;-76
2022/04/18 09:25:13;;;;;;;0.00;0.00;;;;;;;6.20;86.93;98654.63;4860167;29;20040;-76
2022/04/18 09:27:40;;;;;;;0.00;0.00;;;;;;;6.22;87.23;98643.75;4860364;29;20061;-76
2022/04/18 09:30:10;;;;;;;0.00;0.00;;;;;;;6.19;86.96;98646.91;4860132;29;20036;-76
2022/04/18 09:32:38;;;;;;;0.00;0.00;;;;;;;6.15;85.66;98645.81;4860185;29;20033;-76
2022/04/18 09:35:05;;;;;;;0.00;0.00;;;;;;;6.17;85.81;98649.81;4860058;29;20025;-76
2022/04/18 09:37:32;;;;;;;0.00;0.00;;;;;;;6.20;85.71;98648.50;4859877;29;20037;-75
2022/04/18 09:39:57;;;;;;;0.00;0.00;;;;;;;6.20;86.42;98654.63;4859284;29;20030;-76
2022/04/18 09:42:25;;;;;;;0.00;0.00;;;;;;;6.19;85.73;98652.22;4860154;29;20246;-76
2022/04/18 09:44:51;;;;;;;0.00;0.00;;;;;;;6.17;86.47;98654.34;4860073;29;20025;-76
2022/04/18 09:47:18;;;;;;;0.00;0.00;;;;;;;6.24;86.30;98657.56;4860019;29;20056;-76
2022/04/18 09:49:44;;;;;;;0.00;0.00;;;;;;;6.15;85.60;98654.59;4859729;29;20034;-75
2022/04/18 09:52:11;;;;;;;0.00;0.00;;;;;;;6.10;85.15;98657.19;4859768;29;20121;-76
2022/04/18 09:54:49;;;;;;;0.00;0.00;;;;;;;6.17;85.54;98662.31;4859861;29;20555;-75
2022/04/18 09:57:23;;;;;;;0.00;0.00;;;;;;;6.15;85.71;98662.56;4859705;29;20036;-76
2022/04/18 09:59:50;;;;;;;0.00;0.00;;;;;;;6.15;86.30;98667.88;4859832;29;20208;-76
2022/04/18 10:02:17;;;;;;;0.00;0.00;;;;;;;6.12;84.34;98664.94;4859803;29;20025;-75
2022/04/18 10:04:43;;;;;;;0.00;0.00;;;;;;;6.08;85.58;98660.13;4859818;29;20065;-74
2022/04/18 10:07:09;;;;;;;0.00;0.00;;;;;;;6.05;84.65;98665.97;4859722;29;20137;-74
2022/04/18 10:09:38;;;;;;;0.80;0.35;;;;;;;6.04;83.56;98679.47;4859637;29;20030;-74
2022/04/18 10:12:04;;;;;;;0.00;0.00;;;;;;;6.01;83.31;98656.09;4873653;29;20459;-74
2022/04/18 10:14:31;;;;;;;0.10;0.10;;;;;;;5.99;82.51;98674.91;4859506;29;20093;-74
2022/04/18 10:16:58;;;;;;;0.00;0.00;;;;;;;5.96;83.25;98663.97;4859249;29;20034;-74
2022/04/18 10:19:29;;;;;;;0.00;0.00;;;;;;;6.01;84.94;98674.69;4859462;29;20072;-75
2022/04/18 10:22:22;;;;;;;0.00;0.00;;;;;;;5.98;84.62;98675.97;4858781;29;20037;-75
2022/04/18 10:25:04;;;;;;;0.00;0.00;;;;;;;6.02;84.79;98682.38;4859454;29;20037;-75
2022/04/18 10:27:55;;;;;;;0.00;0.00;;;;;;;6.05;84.21;98689.03;4859353;29;20041;-75
2022/04/18 10:30:21;;;;;;;4.60;0.65;;;;;;;6.01;84.13;98687.94;4859351;29;20030;-75
2022/04/18 10:32:48;;;;;;;0.00;0.00;;;;;;;5.92;84.46;98674.31;4859042;29;20033;-75
2022/04/18 10:35:14;;;;;;;0.00;0.00;;;;;;;5.91;83.98;98684.13;4873239;29;20514;-75
2022/04/18 10:37:43;;;;;;;0.00;0.00;;;;;;;5.95;84.48;98678.31;4859019;29;20484;-75
2022/04/18 10:40:09;;;;;;;0.10;0.10;;;;;;;6.01;85.52;98678.13;4859167;29;20045;-74
2022/04/18 10:42:37;;;;;;;0.00;0.00;;;;;;;5.86;83.29;98676.13;4859207;29;20501;-75
2022/04/18 10:45:20;;;;;;;0.00;0.00;;;;;;;5.87;83.89;98680.41;4858910;29;20053;-75
2022/04/18 10:47:54;;;;;;;0.00;0.00;;;;;;;5.85;82.76;98679.84;4859050;29;20029;-75
2022/04/18 10:50:20;;;;;;;0.28;0.28;;;;;;;5.89;82.65;98674.81;4858121;29;20069;-75
2022/04/18 10:53:05;;;;;;;0.00;0.00;;;;;;;5.97;84.68;98669.03;4858864;29;20064;-74
2022/04/18 10:55:30;;;;;;;0.00;0.00;;;;;;;5.99;83.64;98666.94;4859000;29;20030;-74
2022/04/18 10:58:10;;;;;;;0.00;0.00;;;;;;;6.11;83.93;98665.97;4857547;29;20088;-75
2022/04/18 11:00:56;;;;;;;0.00;0.00;;;;;;;6.25;85.57;98667.94;4858871;29;20033;-75
2022/04/18 11:03:40;;;;;;;0.00;0.00;;;;;;;6.34;82.66;98667.44;4859024;29;20037;-73
2022/04/18 11:06:18;;;;;;;0.00;0.00;;;;;;;6.32;82.00;98649.09;4858692;29;20037;-76
2022/04/18 11:09:03;;;;;;;0.30;0.22;;;;;;;6.36;82.95;98655.50;4858856;29;20173;-75
2022/04/18 11:11:53;;;;;;;0.00;0.00;;;;;;;6.31;82.49;98671.44;4858551;29;20565;-75
2022/04/18 11:14:27;;;;;;;0.00;0.00;;;;;;;6.35;84.37;98669.84;4858870;29;20033;-75
2022/04/18 11:16:59;;;;;;;0.90;0.90;;;;;;;6.40;85.19;98669.88;4858808;29;20033;-76
2022/04/18 11:19:46;;;;;;;0.00;0.00;;;;;;;6.45;83.30;98663.78;4849204;29;20072;-76
2022/04/18 11:22:14;;;;;;;0.00;0.00;;;;;;;6.57;84.76;98661.72;4840183;29;20033;-75
2022/04/18 11:24:51;;;;;;;0.00;0.00;;;;;;;6.66;84.17;98659.34;4840124;29;20034;-76
2022/04/18 11:27:22;;;;;;;0.10;0.10;;;;;;;6.64;81.32;98658.03;4839870;29;20417;-76
2022/04/18 11:30:03;;;;;;;0.00;0.00;;;;;;;6.73;81.72;98661.78;4840300;29;20087;-75
2022/04/18 11:32:31;;;;;;;0.00;0.00;;;;;;;6.73;81.90;98657.25;4840231;29;20026;-76
2022/04/18 11:34:59;;;;;;;0.00;0.00;;;;;;;6.68;82.43;98646.63;4840080;29;20038;-75
2022/04/18 11:37:25;;;;;;;0.00;0.00;;;;;;;6.74;80.63;98655.41;4839927;29;20090;-76
2022/04/18 11:39:55;;;;;;;0.00;0.00;;;;;;;6.80;83.46;98651.72;4840201;29;20034;-76
2022/04/18 11:42:31;;;;;;;0.00;0.00;;;;;;;6.83;81.08;98653.84;4854171;29;20029;-75
2022/04/18 11:44:59;;;;;;;0.05;0.05;;;;;;;6.83;80.08;98647.75;4840196;29;20042;-76
2022/04/18 11:47:37;;;;;;;0.00;0.00;;;;;;;6.86;80.54;98658.66;4839959;29;20026;-77
2022/04/18 11:50:03;;;;;;;;;;;;;;;6.89;78.20;98646.69;4840381;29;20094;-75
2022/04/18 11:52:35;;;;;;;0.10;0.10;;;;;;;6.94;78.72;98640.59;4854130;29;20367;-75
2022/04/18 11:55:11;;;;;;;0.00;0.00;;;;;;;7.01;79.16;98649.13;4839805;29;20501;-76
2022/04/18 11:57:38;;;;;;;0.00;0.00;;;;;;;7.05;78.12;98648.34;4839742;29;20388;-76
2022/04/18 12:00:12;;;;;;;0.00;0.00;;;;;;;7.15;79.66;98650.22;4839747;29;20033;-75
2022/04/18 12:08:11;;;;;;;0.00;0.00;;;;;;;7.35;75.25;98643.34;4842275;29;20543;-76
2022/04/18 12:10:41;;;;;;;0.00;0.00;;;;;;;7.42;78.70;98640.41;4856732;29;20513;-75
2022/04/18 12:13:14;;;;;;;0.00;0.00;;;;;;;7.47;74.26;98646.53;4842714;29;20038;-75
2022/04/18 12:15:42;;;;;;;0.00;0.00;;;;;;;7.47;77.35;98632.44;4842768;29;20041;-76
2022/04/18 12:18:12;;;;;;;0.00;0.00;;;;;;;7.50;73.93;98643.34;4842280;29;20484;-75
2022/04/18 12:21:04;;;;;;;0.00;0.00;;;;;;;7.44;72.17;98633.75;4842279;29;20041;-76
2022/04/18 12:23:29;;;;;;;0.00;0.00;;;;;;;7.48;73.20;98629.53;4841936;29;20037;-76
2022/04/18 12:25:58;;;;;;;0.15;0.15;;;;;;;7.44;70.17;98625.00;4842675;29;20041;-76
2022/04/18 12:28:29;;;;;;;0.00;0.00;;;;;;;7.43;71.76;98624.19;4842361;29;20026;-76
2022/04/18 12:30:56;;;;;;;0.10;0.10;;;;;;;7.55;74.33;98623.13;4842326;29;20486;-76
2022/04/18 12:33:22;;;;;;;0.00;0.00;;;;;;;7.57;71.73;98621.81;4842055;29;20478;-76
2022/04/18 12:35:51;;;;;;;0.00;0.00;;;;;;;7.54;71.15;98624.97;4842456;29;20570;-76
2022/04/18 12:38:29;;;;;;;0.05;0.05;;;;;;;7.56;71.32;98630.06;4841994;29;20046;-76
2022/04/18 12:40:58;;;;;;;0.00;0.00;;;;;;;7.50;70.13;98627.38;4842193;29;20117;-76
2022/04/18 12:43:28;;;;;;;0.00;0.00;;;;;;;7.52;71.03;98622.59;4841778;29;20044;-76
2022/04/18 12:45:59;;;;;;;0.52;0.52;;;;;;;7.48;72.34;98624.19;4841704;29;20380;-76
2022/04/18 12:48:26;;;;;;;0.00;0.00;;;;;;;7.52;72.45;98632.44;4842028;29;20034;-76
2022/04/18 12:50:53;;;;;;;0.00;0.00;;;;;;;7.52;71.51;98633.22;4841684;29;20086;-76
2022/04/18 12:53:19;;;;;;;0.00;0.00;;;;;;;7.55;69.76;98623.91;4841724;29;20071;-76
2022/04/18 12:55:46;;;;;;;0.00;0.00;;;;;;;7.63;70.57;98627.91;4841928;29;20500;-76
2022/04/18 12:58:39;;;;;;;0.10;0.10;;;;;;;7.62;70.48;98634.31;4841625;29;20030;-76
2022/04/18 13:01:05;;;;;;;0.00;0.00;;;;;;;7.57;69.94;98636.94;4841509;29;20475;-76
2022/04/18 13:03:41;;;;;;;0.10;0.10;;;;;;;7.46;70.49;98634.31;4841711;29;20061;-76
2022/04/18 13:06:07;;;;;;;0.38;0.38;;;;;;;7.41;70.52;98628.97;4841545;29;20491;-76
2022/04/18 13:08:36;;;;;;;0.00;0.00;;;;;;;7.37;70.71;98627.91;4841395;29;20033;-76
2022/04/18 13:11:02;;;;;;;0.00;0.00;;;;;;;7.34;67.95;98628.44;4841412;29;20038;-76
2022/04/18 13:13:27;;;;;;;0.30;0.30;;;;;;;7.31;68.18;98637.75;4840664;29;20036;-76
2022/04/18 13:15:52;;;;;;;0.00;0.00;;;;;;;7.33;69.88;98629.50;4842316;29;20029;-76
2022/04/18 13:18:26;;;;;;;0.00;0.00;;;;;;;7.23;68.40;98627.63;4841821;29;20113;-76
2022/04/18 13:20:52;;;;;;;0.00;0.00;;;;;;;7.24;70.25;98623.09;4841875;29;20068;-76
2022/04/18 13:23:18;;;;;;;0.00;0.00;;;;;;;7.32;69.48;98626.06;4840842;29;20054;-76
2022/04/18 13:25:46;;;;;;;0.35;0.35;;;;;;;7.38;71.03;98629.50;4856347;29;20038;-76
2022/04/18 13:28:15;;;;;;;0.00;0.00;;;;;;;7.42;70.24;98619.13;4841786;29;20038;-76
2022/04/18 13:30:41;;;;;;;0.00;0.00;;;;;;;7.39;66.76;98625.78;4841944;29;20613;-76
2022/04/18 13:33:08;;;;;;;0.00;0.00;;;;;;;7.33;67.09;98637.47;4855641;29;20508;-76
2022/04/18 13:38:22;;;;;;;0.00;0.00;;;;;;;7.23;68.39;98622.31;4841315;29;20174;-76
2022/04/18 13:40:49;;;;;;;0.00;0.00;;;;;;;7.28;69.00;98634.81;4841624;29;20059;-75
2022/04/18 13:43:14;;;;;;;0.10;0.10;;;;;;;7.27;69.89;98623.38;4841483;29;20109;-75
2022/04/18 13:45:41;;;;;;;0.00;0.00;;;;;;;7.26;71.24;98629.75;4841629;29;20110;-76